Terminal Aerodrome Forecast
Issued by NWS

Current Version | Previous Version | Text Only | Print | Product List | Glossary On
Versions: 1 2 3 4 5 6 7 8 9 10 11 12 13 14 15 16 17 18 19 20 21 22 23 24 25 26 27 28 29
954
FTUS42 KCAE 230831 AAA
TAFDNL
TAF AMD
KDNL 230831Z 2309/2406 09007KT P6SM VCSH BKN004 OVC012
     FM231200 13008KT 4SM -SHRA BR SCT006 OVC015
     FM231500 15010G17KT 5SM -SHRA BR SCT006 OVC015
     FM240200 26003KT P6SM SKC=

USA.gov is the U.S. government's official web portal to all federal, state and local government web resources and services.